sensor_id;sensor_type;location;lat;lon;timestamp;pressure;altitude;pressure_sealevel;temperature;humidity
33265;BME280;31404;53.974;-1.086;2023-02-02T00:00:36;102034.86;;;5.60;100.00
33265;BME280;31404;53.974;-1.086;2023-02-02T00:05:35;102021.25;;;5.32;100.00
33265;BME280;31404;53.974;-1.086;2023-02-02T00:10:35;102022.19;;;5.08;100.00
33265;BME280;31404;53.974;-1.086;2023-02-02T00:15:35;102021.84;;;4.60;100.00
33265;BME280;31404;53.974;-1.086;2023-02-02T00:20:34;102022.19;;;5.02;100.00
33265;BME280;31404;53.974;-1.086;2023-02-02T00:25:34;102022.18;;;4.93;100.00
33265;BME280;31404;53.974;-1.086;2023-02-02T00:30:35;102036.76;;;5.27;100.00
33265;BME280;31404;53.974;-1.086;2023-02-02T00:35:35;102032.73;;;5.25;100.00
33265;BME280;31404;53.974;-1.086;2023-02-02T00:40:35;102043.45;;;5.13;100.00
33265;BME280;31404;53.974;-1.086;2023-02-02T00:45:35;102040.33;;;6.51;100.00
33265;BME280;31404;53.974;-1.086;2023-02-02T00:50:34;102039.42;;;6.06;100.00
33265;BME280;31404;53.974;-1.086;2023-02-02T00:55:34;102041.45;;;6.29;100.00
33265;BME280;31404;53.974;-1.086;2023-02-02T01:00:34;102029.05;;;5.15;100.00
33265;BME280;31404;53.974;-1.086;2023-02-02T01:05:37;102048.37;;;5.21;100.00
33265;BME280;31404;53.974;-1.086;2023-02-02T01:10:35;102046.50;;;4.96;100.00
33265;BME280;31404;53.974;-1.086;2023-02-02T01:15:36;102056.80;;;4.95;100.00
33265;BME280;31404;53.974;-1.086;2023-02-02T01:20:34;102048.14;;;5.43;100.00
33265;BME280;31404;53.974;-1.086;2023-02-02T01:25:35;102052.33;;;6.43;100.00
33265;BME280;31404;53.974;-1.086;2023-02-02T01:30:35;102047.35;;;6.24;100.00
33265;BME280;31404;53.974;-1.086;2023-02-02T01:35:35;102031.54;;;6.40;100.00
33265;BME280;31404;53.974;-1.086;2023-02-02T01:40:35;102039.28;;;5.92;100.00
33265;BME280;31404;53.974;-1.086;2023-02-02T01:45:35;102045.85;;;5.73;100.00
33265;BME280;31404;53.974;-1.086;2023-02-02T01:50:34;102057.35;;;6.05;100.00
33265;BME280;31404;53.974;-1.086;2023-02-02T01:55:37;102048.78;;;6.67;100.00
33265;BME280;31404;53.974;-1.086;2023-02-02T02:00:35;102049.69;;;8.38;92.87
33265;BME280;31404;53.974;-1.086;2023-02-02T02:05:40;102044.10;;;7.67;96.12
33265;BME280;31404;53.974;-1.086;2023-02-02T02:10:34;102050.09;;;6.07;100.00
33265;BME280;31404;53.974;-1.086;2023-02-02T02:35:34;102050.38;;;5.77;100.00
33265;BME280;31404;53.974;-1.086;2023-02-02T02:40:36;102042.08;;;6.08;100.00
33265;BME280;31404;53.974;-1.086;2023-02-02T02:45:36;102037.35;;;5.84;100.00
33265;BME280;31404;53.974;-1.086;2023-02-02T02:50:34;102039.09;;;5.38;100.00
33265;BME280;31404;53.974;-1.086;2023-02-02T03:10:37;102031.99;;;6.30;100.00
33265;BME280;31404;53.974;-1.086;2023-02-02T03:15:35;102032.18;;;7.25;100.00
33265;BME280;31404;53.974;-1.086;2023-02-02T03:20:35;102029.47;;;6.85;100.00
33265;BME280;31404;53.974;-1.086;2023-02-02T03:25:35;102023.81;;;6.95;100.00
33265;BME280;31404;53.974;-1.086;2023-02-02T03:30:35;102015.99;;;6.79;100.00
33265;BME280;31404;53.974;-1.086;2023-02-02T03:35:35;102011.23;;;6.57;100.00
33265;BME280;31404;53.974;-1.086;2023-02-02T03:40:35;102013.75;;;6.00;100.00
33265;BME280;31404;53.974;-1.086;2023-02-02T03:45:35;102022.89;;;4.97;100.00
33265;BME280;31404;53.974;-1.086;2023-02-02T03:50:36;102005.98;;;5.74;100.00
33265;BME280;31404;53.974;-1.086;2023-02-02T03:55:35;102004.13;;;5.74;100.00
33265;BME280;31404;53.974;-1.086;2023-02-02T04:00:35;102001.52;;;5.75;100.00
33265;BME280;31404;53.974;-1.086;2023-02-02T04:05:43;101995.85;;;5.30;100.00
33265;BME280;31404;53.974;-1.086;2023-02-02T04:10:35;101998.19;;;5.49;100.00
33265;BME280;31404;53.974;-1.086;2023-02-02T04:15:35;102029.64;;;5.92;100.00
33265;BME280;31404;53.974;-1.086;2023-02-02T04:20:35;102034.77;;;5.31;100.00
33265;BME280;31404;53.974;-1.086;2023-02-02T04:25:34;102042.86;;;5.92;100.00
33265;BME280;31404;53.974;-1.086;2023-02-02T04:30:35;102045.18;;;5.76;100.00
33265;BME280;31404;53.974;-1.086;2023-02-02T04:35:35;102037.63;;;6.19;100.00
33265;BME280;31404;53.974;-1.086;2023-02-02T04:40:37;102027.59;;;5.43;100.00
33265;BME280;31404;53.974;-1.086;2023-02-02T04:45:35;102026.76;;;4.89;100.00
33265;BME280;31404;53.974;-1.086;2023-02-02T04:50:35;102017.10;;;6.16;100.00
33265;BME280;31404;53.974;-1.086;2023-02-02T04:55:36;102018.52;;;5.65;100.00
33265;BME280;31404;53.974;-1.086;2023-02-02T05:00:34;102022.69;;;4.48;100.00
33265;BME280;31404;53.974;-1.086;2023-02-02T05:05:34;102010.41;;;5.92;100.00
33265;BME280;31404;53.974;-1.086;2023-02-02T05:10:34;102020.15;;;5.82;100.00
33265;BME280;31404;53.974;-1.086;2023-02-02T05:15:34;102026.45;;;5.22;100.00
33265;BME280;31404;53.974;-1.086;2023-02-02T05:20:35;102026.20;;;6.23;100.00
33265;BME280;31404;53.974;-1.086;2023-02-02T05:25:35;102024.27;;;5.98;100.00
33265;BME280;31404;53.974;-1.086;2023-02-02T05:35:35;102026.69;;;5.09;100.00
33265;BME280;31404;53.974;-1.086;2023-02-02T05:40:35;102024.79;;;5.40;100.00
33265;BME280;31404;53.974;-1.086;2023-02-02T05:45:35;102030.33;;;4.45;100.00
33265;BME280;31404;53.974;-1.086;2023-02-02T05:50:35;102044.82;;;4.03;100.00
33265;BME280;31404;53.974;-1.086;2023-02-02T05:55:34;102042.47;;;5.13;100.00
33265;BME280;31404;53.974;-1.086;2023-02-02T06:00:34;102039.81;;;5.85;100.00
33265;BME280;31404;53.974;-1.086;2023-02-02T06:05:35;102045.76;;;5.22;100.00
33265;BME280;31404;53.974;-1.086;2023-02-02T06:10:38;102041.61;;;5.64;100.00
33265;BME280;31404;53.974;-1.086;2023-02-02T06:15:35;102050.65;;;4.78;100.00
33265;BME280;31404;53.974;-1.086;2023-02-02T06:20:35;102051.22;;;4.87;100.00
33265;BME280;31404;53.974;-1.086;2023-02-02T06:25:36;102044.19;;;5.12;100.00
33265;BME280;31404;53.974;-1.086;2023-02-02T06:30:35;102042.95;;;5.46;100.00
33265;BME280;31404;53.974;-1.086;2023-02-02T06:35:41;102052.34;;;5.21;100.00
33265;BME280;31404;53.974;-1.086;2023-02-02T06:40:35;102059.40;;;4.63;100.00
33265;BME280;31404;53.974;-1.086;2023-02-02T06:45:35;102054.32;;;5.15;100.00
33265;BME280;31404;53.974;-1.086;2023-02-02T06:50:35;102058.45;;;5.45;100.00
33265;BME280;31404;53.974;-1.086;2023-02-02T06:55:34;102065.96;;;5.00;100.00
33265;BME280;31404;53.974;-1.086;2023-02-02T07:00:34;102073.79;;;4.58;100.00
33265;BME280;31404;53.974;-1.086;2023-02-02T07:05:35;102071.93;;;4.49;100.00
33265;BME280;31404;53.974;-1.086;2023-02-02T07:10:36;102066.47;;;4.51;100.00
33265;BME280;31404;53.974;-1.086;2023-02-02T07:15:37;102071.34;;;4.84;100.00
33265;BME280;31404;53.974;-1.086;2023-02-02T07:20:34;102071.88;;;5.48;100.00
33265;BME280;31404;53.974;-1.086;2023-02-02T07:25:34;102071.21;;;5.15;100.00
33265;BME280;31404;53.974;-1.086;2023-02-02T07:30:34;102082.37;;;5.28;100.00
33265;BME280;31404;53.974;-1.086;2023-02-02T07:35:35;102073.76;;;5.68;100.00
33265;BME280;31404;53.974;-1.086;2023-02-02T07:45:35;102071.28;;;5.14;100.00
33265;BME280;31404;53.974;-1.086;2023-02-02T07:50:35;102084.55;;;4.80;100.00
33265;BME280;31404;53.974;-1.086;2023-02-02T07:55:35;102091.92;;;4.19;100.00
33265;BME280;31404;53.974;-1.086;2023-02-02T08:00:35;102097.29;;;3.99;100.00
33265;BME280;31404;53.974;-1.086;2023-02-02T08:05:34;102092.94;;;3.76;100.00
33265;BME280;31404;53.974;-1.086;2023-02-02T08:10:34;102106.41;;;4.60;100.00
33265;BME280;31404;53.974;-1.086;2023-02-02T08:15:34;102099.32;;;5.62;100.00
33265;BME280;31404;53.974;-1.086;2023-02-02T08:20:35;102117.34;;;5.84;100.00
33265;BME280;31404;53.974;-1.086;2023-02-02T08:25:35;102125.94;;;5.75;100.00
33265;BME280;31404;53.974;-1.086;2023-02-02T08:30:35;102133.21;;;6.96;100.00
33265;BME280;31404;53.974;-1.086;2023-02-02T08:40:35;102138.57;;;6.35;100.00
33265;BME280;31404;53.974;-1.086;2023-02-02T08:45:35;102145.27;;;6.62;100.00
33265;BME280;31404;53.974;-1.086;2023-02-02T08:50:35;102155.16;;;6.80;100.00
33265;BME280;31404;53.974;-1.086;2023-02-02T08:55:35;102161.53;;;5.75;100.00
33265;BME280;31404;53.974;-1.086;2023-02-02T09:00:35;102166.00;;;5.93;100.00
33265;BME280;31404;53.974;-1.086;2023-02-02T09:05:35;102165.74;;;6.17;100.00
33265;BME280;31404;53.974;-1.086;2023-02-02T09:10:34;102164.15;;;5.68;100.00
33265;BME280;31404;53.974;-1.086;2023-02-02T09:15:35;102168.45;;;6.17;100.00
33265;BME280;31404;53.974;-1.086;2023-02-02T09:20:35;102166.08;;;5.85;100.00
33265;BME280;31404;53.974;-1.086;2023-02-02T09:25:35;102170.76;;;5.08;100.00
33265;BME280;31404;53.974;-1.086;2023-02-02T09:30:35;102164.72;;;5.48;100.00
33265;BME280;31404;53.974;-1.086;2023-02-02T09:35:35;102176.28;;;4.65;100.00
33265;BME280;31404;53.974;-1.086;2023-02-02T09:40:35;102174.15;;;4.80;100.00
33265;BME280;31404;53.974;-1.086;2023-02-02T09:45:40;102172.55;;;5.63;100.00
33265;BME280;31404;53.974;-1.086;2023-02-02T09:55:36;102170.50;;;5.91;100.00
33265;BME280;31404;53.974;-1.086;2023-02-02T10:15:37;102186.09;;;4.95;100.00
33265;BME280;31404;53.974;-1.086;2023-02-02T10:25:34;102170.94;;;5.64;100.00
33265;BME280;31404;53.974;-1.086;2023-02-02T10:35:40;102164.71;;;5.88;100.00
33265;BME280;31404;53.974;-1.086;2023-02-02T10:45:35;102160.65;;;5.66;100.00
33265;BME280;31404;53.974;-1.086;2023-02-02T10:50:35;102154.72;;;6.45;100.00
33265;BME280;31404;53.974;-1.086;2023-02-02T10:55:38;102152.01;;;6.78;100.00
33265;BME280;31404;53.974;-1.086;2023-02-02T11:00:33;102158.57;;;6.12;100.00
33265;BME280;31404;53.974;-1.086;2023-02-02T11:05:35;102161.15;;;6.34;100.00
33265;BME280;31404;53.974;-1.086;2023-02-02T11:10:34;102161.05;;;7.25;100.00
33265;BME280;31404;53.974;-1.086;2023-02-02T11:15:34;102165.90;;;6.49;100.00
33265;BME280;31404;53.974;-1.086;2023-02-02T11:20:35;102168.97;;;6.18;100.00
33265;BME280;31404;53.974;-1.086;2023-02-02T11:25:36;102164.16;;;6.32;100.00
33265;BME280;31404;53.974;-1.086;2023-02-02T11:30:35;102173.11;;;6.17;100.00
33265;BME280;31404;53.974;-1.086;2023-02-02T11:35:35;102158.28;;;6.39;100.00
33265;BME280;31404;53.974;-1.086;2023-02-02T11:40:37;102156.33;;;5.55;100.00
33265;BME280;31404;53.974;-1.086;2023-02-02T11:45:37;102155.04;;;5.71;100.00
33265;BME280;31404;53.974;-1.086;2023-02-02T11:50:34;102155.27;;;6.51;100.00
33265;BME280;31404;53.974;-1.086;2023-02-02T11:55:34;102157.16;;;5.29;100.00
33265;BME280;31404;53.974;-1.086;2023-02-02T12:05:35;102132.66;;;6.70;100.00
33265;BME280;31404;53.974;-1.086;2023-02-02T13:10:37;102110.45;;;6.65;100.00
33265;BME280;31404;53.974;-1.086;2023-02-02T13:15:37;102117.83;;;5.21;100.00
33265;BME280;31404;53.974;-1.086;2023-02-02T13:20:38;102120.48;;;5.46;100.00
33265;BME280;31404;53.974;-1.086;2023-02-02T13:25:39;102112.81;;;5.88;100.00
33265;BME280;31404;53.974;-1.086;2023-02-02T13:30:37;102100.79;;;5.71;100.00
33265;BME280;31404;53.974;-1.086;2023-02-02T13:40:37;102100.42;;;5.41;100.00
33265;BME280;31404;53.974;-1.086;2023-02-02T14:00:37;102092.62;;;6.79;100.00
33265;BME280;31404;53.974;-1.086;2023-02-02T14:05:37;102090.88;;;7.44;100.00
33265;BME280;31404;53.974;-1.086;2023-02-02T14:10:36;102084.79;;;6.67;100.00
33265;BME280;31404;53.974;-1.086;2023-02-02T14:15:37;102086.73;;;6.90;100.00
33265;BME280;31404;53.974;-1.086;2023-02-02T14:30:36;102081.12;;;6.57;100.00
33265;BME280;31404;53.974;-1.086;2023-02-02T14:45:35;102052.08;;;6.36;100.00
33265;BME280;31404;53.974;-1.086;2023-02-02T14:55:37;102054.71;;;6.07;100.00
33265;BME280;31404;53.974;-1.086;2023-02-02T15:00:35;102062.88;;;5.86;100.00
33265;BME280;31404;53.974;-1.086;2023-02-02T15:15:34;102064.34;;;5.39;100.00
33265;BME280;31404;53.974;-1.086;2023-02-02T15:30:36;102100.66;;;5.43;100.00
33265;BME280;31404;53.974;-1.086;2023-02-02T15:35:34;102102.01;;;5.62;100.00
33265;BME280;31404;53.974;-1.086;2023-02-02T15:40:35;102100.07;;;6.12;100.00
33265;BME280;31404;53.974;-1.086;2023-02-02T15:50:35;102102.27;;;5.94;100.00
33265;BME280;31404;53.974;-1.086;2023-02-02T15:55:35;102107.86;;;6.74;100.00
33265;BME280;31404;53.974;-1.086;2023-02-02T16:00:35;102101.32;;;7.24;100.00
33265;BME280;31404;53.974;-1.086;2023-02-02T16:10:35;102095.02;;;7.70;100.00
33265;BME280;31404;53.974;-1.086;2023-02-02T16:15:35;102090.03;;;7.10;100.00
33265;BME280;31404;53.974;-1.086;2023-02-02T16:20:36;102090.48;;;6.53;100.00
33265;BME280;31404;53.974;-1.086;2023-02-02T16:25:45;102096.82;;;5.74;100.00
33265;BME280;31404;53.974;-1.086;2023-02-02T16:30:37;102098.98;;;5.93;100.00
33265;BME280;31404;53.974;-1.086;2023-02-02T16:35:36;102101.43;;;5.63;100.00
33265;BME280;31404;53.974;-1.086;2023-02-02T16:40:35;102084.51;;;5.87;100.00
33265;BME280;31404;53.974;-1.086;2023-02-02T16:50:34;102071.27;;;6.46;100.00
33265;BME280;31404;53.974;-1.086;2023-02-02T16:55:34;102077.78;;;6.77;100.00
33265;BME280;31404;53.974;-1.086;2023-02-02T17:00:34;102096.82;;;6.23;100.00
33265;BME280;31404;53.974;-1.086;2023-02-02T17:10:36;102099.43;;;7.05;100.00
33265;BME280;31404;53.974;-1.086;2023-02-02T17:15:35;102098.31;;;6.86;100.00
33265;BME280;31404;53.974;-1.086;2023-02-02T17:20:35;102102.71;;;6.61;100.00
33265;BME280;31404;53.974;-1.086;2023-02-02T17:25:37;102110.15;;;6.02;100.00
33265;BME280;31404;53.974;-1.086;2023-02-02T17:30:34;102120.70;;;6.20;100.00
33265;BME280;31404;53.974;-1.086;2023-02-02T17:35:35;102110.48;;;7.27;100.00
33265;BME280;31404;53.974;-1.086;2023-02-02T17:40:35;102089.40;;;6.71;100.00
33265;BME280;31404;53.974;-1.086;2023-02-02T17:45:35;102091.56;;;5.41;100.00
33265;BME280;31404;53.974;-1.086;2023-02-02T17:50:36;102095.79;;;6.35;100.00
33265;BME280;31404;53.974;-1.086;2023-02-02T17:55:37;102110.58;;;5.72;100.00
33265;BME280;31404;53.974;-1.086;2023-02-02T18:00:35;102117.90;;;6.29;100.00
33265;BME280;31404;53.974;-1.086;2023-02-02T18:05:37;102126.80;;;5.85;100.00
33265;BME280;31404;53.974;-1.086;2023-02-02T18:10:35;102121.05;;;5.26;100.00
33265;BME280;31404;53.974;-1.086;2023-02-02T18:15:35;102087.73;;;5.72;100.00
33265;BME280;31404;53.974;-1.086;2023-02-02T18:20:35;102094.99;;;6.13;100.00
33265;BME280;31404;53.974;-1.086;2023-02-02T18:25:35;102095.18;;;5.91;100.00
33265;BME280;31404;53.974;-1.086;2023-02-02T18:30:36;102110.33;;;5.47;100.00
33265;BME280;31404;53.974;-1.086;2023-02-02T18:35:35;102112.89;;;5.95;100.00
33265;BME280;31404;53.974;-1.086;2023-02-02T18:40:34;102135.50;;;5.00;100.00
33265;BME280;31404;53.974;-1.086;2023-02-02T18:45:35;102158.30;;;4.81;100.00
33265;BME280;31404;53.974;-1.086;2023-02-02T18:50:35;102154.66;;;5.40;100.00
33265;BME280;31404;53.974;-1.086;2023-02-02T18:55:36;102180.82;;;6.07;100.00
33265;BME280;31404;53.974;-1.086;2023-02-02T19:00:35;102187.60;;;4.97;100.00
33265;BME280;31404;53.974;-1.086;2023-02-02T19:05:37;102174.15;;;5.63;100.00
33265;BME280;31404;53.974;-1.086;2023-02-02T19:10:35;102178.67;;;5.36;100.00
33265;BME280;31404;53.974;-1.086;2023-02-02T19:15:37;102178.69;;;5.19;100.00
33265;BME280;31404;53.974;-1.086;2023-02-02T19:20:35;102198.98;;;4.94;100.00
33265;BME280;31404;53.974;-1.086;2023-02-02T19:25:34;102195.09;;;4.21;100.00
33265;BME280;31404;53.974;-1.086;2023-02-02T19:30:34;102189.18;;;5.13;100.00
33265;BME280;31404;53.974;-1.086;2023-02-02T19:35:34;102185.24;;;5.22;100.00
33265;BME280;31404;53.974;-1.086;2023-02-02T19:40:34;102176.74;;;5.20;100.00
33265;BME280;31404;53.974;-1.086;2023-02-02T19:45:35;102171.87;;;4.86;100.00
33265;BME280;31404;53.974;-1.086;2023-02-02T19:50:37;102156.10;;;5.77;100.00
33265;BME280;31404;53.974;-1.086;2023-02-02T19:55:35;102164.13;;;6.28;100.00
33265;BME280;31404;53.974;-1.086;2023-02-02T20:00:35;102163.50;;;8.18;100.00
33265;BME280;31404;53.974;-1.086;2023-02-02T20:05:37;102162.86;;;6.89;100.00
33265;BME280;31404;53.974;-1.086;2023-02-02T20:20:38;102134.65;;;8.11;100.00
33265;BME280;31404;53.974;-1.086;2023-02-02T20:25:35;102150.55;;;8.84;100.00
33265;BME280;31404;53.974;-1.086;2023-02-02T20:30:35;102138.07;;;8.38;100.00
33265;BME280;31404;53.974;-1.086;2023-02-02T20:40:35;102122.91;;;6.53;100.00
33265;BME280;31404;53.974;-1.086;2023-02-02T20:45:35;102120.05;;;6.30;100.00
33265;BME280;31404;53.974;-1.086;2023-02-02T20:50:34;102104.46;;;7.05;100.00
33265;BME280;31404;53.974;-1.086;2023-02-02T20:55:34;102123.32;;;6.10;100.00
33265;BME280;31404;53.974;-1.086;2023-02-02T21:00:34;102117.10;;;6.73;100.00
33265;BME280;31404;53.974;-1.086;2023-02-02T21:05:35;102121.83;;;6.59;100.00
33265;BME280;31404;53.974;-1.086;2023-02-02T21:10:35;102132.53;;;5.94;100.00
33265;BME280;31404;53.974;-1.086;2023-02-02T21:15:35;102138.42;;;6.45;100.00
33265;BME280;31404;53.974;-1.086;2023-02-02T21:20:34;102136.24;;;6.25;100.00
33265;BME280;31404;53.974;-1.086;2023-02-02T21:25:34;102131.75;;;6.37;100.00
33265;BME280;31404;53.974;-1.086;2023-02-02T21:30:34;102121.00;;;5.51;100.00
33265;BME280;31404;53.974;-1.086;2023-02-02T21:35:34;102111.87;;;5.82;100.00
33265;BME280;31404;53.974;-1.086;2023-02-02T21:40:35;102101.74;;;6.09;100.00
33265;BME280;31404;53.974;-1.086;2023-02-02T21:45:36;102090.16;;;6.30;100.00
33265;BME280;31404;53.974;-1.086;2023-02-02T21:50:39;102088.81;;;5.70;100.00
33265;BME280;31404;53.974;-1.086;2023-02-02T21:55:37;102087.50;;;6.65;100.00
33265;BME280;31404;53.974;-1.086;2023-02-02T22:00:34;102089.22;;;6.69;100.00
33265;BME280;31404;53.974;-1.086;2023-02-02T22:05:35;102091.98;;;6.47;100.00
33265;BME280;31404;53.974;-1.086;2023-02-02T22:10:37;102096.79;;;5.58;100.00
33265;BME280;31404;53.974;-1.086;2023-02-02T22:15:35;102089.31;;;5.89;100.00
33265;BME280;31404;53.974;-1.086;2023-02-02T22:20:35;102088.26;;;5.67;100.00
33265;BME280;31404;53.974;-1.086;2023-02-02T22:25:36;102062.29;;;5.40;100.00
33265;BME280;31404;53.974;-1.086;2023-02-02T22:30:37;102061.48;;;4.91;100.00
33265;BME280;31404;53.974;-1.086;2023-02-02T22:35:35;102069.44;;;5.16;100.00
33265;BME280;31404;53.974;-1.086;2023-02-02T22:40:35;102075.44;;;6.66;100.00
33265;BME280;31404;53.974;-1.086;2023-02-02T22:45:34;102084.59;;;5.57;100.00
33265;BME280;31404;53.974;-1.086;2023-02-02T22:50:34;102093.71;;;5.81;100.00
33265;BME280;31404;53.974;-1.086;2023-02-02T22:55:34;102092.35;;;5.63;100.00
33265;BME280;31404;53.974;-1.086;2023-02-02T23:00:36;102104.84;;;6.24;100.00
33265;BME280;31404;53.974;-1.086;2023-02-02T23:05:36;102105.69;;;5.26;100.00
33265;BME280;31404;53.974;-1.086;2023-02-02T23:10:35;102117.63;;;5.92;100.00
33265;BME280;31404;53.974;-1.086;2023-02-02T23:15:35;102126.38;;;6.01;100.00
33265;BME280;31404;53.974;-1.086;2023-02-02T23:20:35;102133.49;;;5.72;100.00
33265;BME280;31404;53.974;-1.086;2023-02-02T23:25:34;102143.19;;;6.38;100.00
33265;BME280;31404;53.974;-1.086;2023-02-02T23:30:34;102126.99;;;5.90;100.00
33265;BME280;31404;53.974;-1.086;2023-02-02T23:35:34;102122.19;;;5.70;100.00
33265;BME280;31404;53.974;-1.086;2023-02-02T23:40:34;102107.07;;;5.35;100.00
33265;BME280;31404;53.974;-1.086;2023-02-02T23:45:36;102103.16;;;5.80;100.00
33265;BME280;31404;53.974;-1.086;2023-02-02T23:50:35;102114.79;;;5.77;100.00
33265;BME280;31404;53.974;-1.086;2023-02-02T23:55:35;102106.38;;;5.67;100.00
